KGRN

Gordon Municipal Airport

Gordon, Nebraska, USA
METAR KGRN 191255Z AUTO 29006KT 10SM CLR 05/01 A3010 RMK AO2 T00460006
Observed Flight Rules
Oct-19 @ 12:55 UTC (30 minutes ago) Visual Flight Rules
Wind Visibility Clouds
290° at 6 knots 10 miles
  • Clear skies
Temperatures Readings
Current 5°C / 41°F
Dewpoint 1°C / 34°F
Humidity 76%
Altimeter 30.1" Hg
Pressure 1019 hPa
Elevation 1086
METAR KGRN 191255Z AUTO 29006KT 10SM CLR 05/01 A3010 RMK AO2 T00460006
Observed Flight Rules
Oct-19 @ 12:55 UTC
(30 minutes ago)
VFR
Wind Visibility
290° at 6 knots 10 miles
Clouds
  • Clear skies
Temperature Dewpoint
5°C / 41°F 1°C / 34°F
Humidity Altimeter Pressure
76% 30.1" Hg 1019 hPa